Hovedside
METAR-TAF:

METAR-TAF

Lufthavner :

Kiruna lufthavn

Kiruna, Sverige

breddegrad: 67-49N, lengdegrad: 020-20E, høyde over havet: 452 m

Gjeldene værobservasjon

Denne rapporten ble laget for 42 minutter siden, klokken 12:20 UTC
Vind 7 kt fra Sør, skiftende mellom Sør-sørøst og Sør-sørvest
Temperatur 12°C
Luftfuktighet 71%
Trykk 1010 hPa
Sikt 10 km eller mer
Få skyer i en høyde av 3700 ft
Brutte skyer i en høyde av 5100 ft
Overskyet i en høyde av 6800 ft

METAR: ESNQ 151220Z 18007KT 150V210 9999 FEW037 BKN051 OVC068 12/07 Q1010

Tid: 15:02 (13:02 UTC)

Varsel

Denne rapporten ble laget for 1 time og 32 minutter siden, klokken 11:30 UTC
Varsel gyldig fra 15. klokken 12 UTC til 15. klokken 17 UTC
Vind 12 kt fra Sør
Sikt 10 km eller mer
Brutte skyer i en høyde av 4000 ft, Tårnskyer (cumulus).
Midlertidig
fra 15. klokken 12 UTC til 15. klokken 15 UTC
regnbyger

TAF: ESNQ 151130Z 1512/1517 18012KT 9999 BKN040TCU TEMPO 1512/1515 SHRA

Værobservasjoner og værvarsel for over 4000 flyplasser (METAR- og TAF-rapporter).

Tilgjengelige stasjoner er representert av de røde og gule prikkene på kartet.

Hold musepekeren over prikken for å se navnet på stasjonen.

Klikk så for å se værobservasjoner og -varsler.

For å forandre kartet kan du klikke på den grønne knappen med svart kryss for å zoome inn, på den grønne knappen med strek for å zoome ut, eller på de grønne pilene for å se tilstøtende kart.


METAR-TAF: